Waukegan, IL (60079)

9:31 AM CDT on May 25, 2018 (GMT -0500)
North Side, Waukegan | | Change Station
Active Advisory: Flood Warning

Elev 659 ft 42.37 °N, 87.83 °W | Updated 14 seconds ago

Clear
Clear
81.0 °F
Feels Like 80 °F
N
6.7
Wind Variable Wind from WSW
Gusts 7.4 mph

Today
High -- | Low -- °F
--% Chance of Precip.
Yesterday
High -- | Low -- °F
Precip. -- in
Pressure 29.90 in
Visibility 10.0 miles
Clouds Clear
Heat Index 80 °F
Dew Point 48 °F
Humidity 32%
Rainfall 0.00 in
Snow Depth Not available.
5:21 AM 8:15 PM
Waxing Gibbous, 84% visible
METAR KUGN 251355Z 23006KT 10SM CLR 26/16 A2993 RMK AO2 SLP124 T02560161
Pressure 29.90 in
Visibility 10.0 miles
Clouds Clear
Heat Index 80 °F
Dew Point 48 °F
Humidity 32%
Rainfall 0.00 in
Snow Depth Not available.
5:21 AM 8:15 PM
Waxing Gibbous, 84% visible
METAR KUGN 251355Z 23006KT 10SM CLR 26/16 A2993 RMK AO2 SLP124 T02560161

Get Your Daily Forecast Email!

Thanks for signing up!

Be on the lookout for a verification email in your inbox.

You'll start receiving severe weather alerts in your inbox..

×

10-Day Weather Forecast

Almanac

Astronomy

May. 25, 2018 Rise Set
Actual Time
Civil Twilight
Nautical Twilight
Astronomical Twilight
Moon
Length of Visible Light
Length of Day
Tomorrow will be .
, % of the Moon is Illuminated

Today's Extremes

State Highs State Lows

Community

WunderPhotos

Category 6

Welcome to Category 6. This is the collective home for Weather Underground's featured writeups by Dr. Jeff Masters (right), Bob Henson (left), Chris Burt, and other regular contributors.

Nearby

Air Quality

  Air Quality AQ Index Pollutant
Not available.

Snow Depth

Station Depth Elevation

Earthquake Activity

City Distance Mag. Time & Date
Minimum magnitude displayed is 2.5.

Coastal Water Temperatures

Place Temperature

Stations

Nearby Weather Stations

Station Location Temp. Windchill Dew Point Humidity Wind Precip. Elev Updated Type
                   

Watches & Warnings

Flood Warning
Issued: 9:25 AM CDT May. 25, 2018 – National Weather Service

The Flood Warning continues for
the Des Plaines river near Gurnee.
* Until late tonight.
* At 830 am Friday the stage was 7.2 feet.
* Flood stage is 7.0 feet.
* Minor flooding is occurring and minor flooding is forecast.
* Forecast... the river will continue to fall to below flood stage by
this evening.
* Impact... at 7.0 feet... flooding begins to affect the lowest areas
near the river.


Lat... Lon 4239 8787 4230 8791 4223 8788 4224 8797
      4230 8800 4239 8796